sensor_id;sensor_type;location;lat;lon;timestamp;P1;durP1;ratioP1;P2;durP2;ratioP2
18983;SDS011;9626;52.552;13.436;2022-08-19T00:02:22;10.07;;;9.18;;
18983;SDS011;9626;52.552;13.436;2022-08-19T00:05:07;11.13;;;10.02;;
18983;SDS011;9626;52.552;13.436;2022-08-19T00:07:52;10.85;;;9.88;;
18983;SDS011;9626;52.552;13.436;2022-08-19T00:10:18;10.45;;;9.52;;
18983;SDS011;9626;52.552;13.436;2022-08-19T00:12:45;10.68;;;9.68;;
18983;SDS011;9626;52.552;13.436;2022-08-19T00:15:11;11.05;;;10.05;;
18983;SDS011;9626;52.552;13.436;2022-08-19T00:17:39;11.95;;;10.60;;
18983;SDS011;9626;52.552;13.436;2022-08-19T00:20:07;9.85;;;8.95;;
18983;SDS011;9626;52.552;13.436;2022-08-19T00:22:36;10.90;;;9.90;;
18983;SDS011;9626;52.552;13.436;2022-08-19T00:25:03;11.95;;;10.70;;
18983;SDS011;9626;52.552;13.436;2022-08-19T00:27:29;11.57;;;10.45;;
18983;SDS011;9626;52.552;13.436;2022-08-19T00:29:55;11.02;;;10.02;;
18983;SDS011;9626;52.552;13.436;2022-08-19T00:32:20;10.75;;;9.75;;
18983;SDS011;9626;52.552;13.436;2022-08-19T00:34:46;12.05;;;10.32;;
18983;SDS011;9626;52.552;13.436;2022-08-19T00:37:12;11.82;;;10.57;;
18983;SDS011;9626;52.552;13.436;2022-08-19T00:39:37;10.93;;;9.93;;
18983;SDS011;9626;52.552;13.436;2022-08-19T00:42:03;10.60;;;9.50;;
18983;SDS011;9626;52.552;13.436;2022-08-19T00:44:29;11.35;;;9.95;;
18983;SDS011;9626;52.552;13.436;2022-08-19T00:47:13;9.85;;;8.98;;
18983;SDS011;9626;52.552;13.436;2022-08-19T00:49:48;11.75;;;9.32;;
18983;SDS011;9626;52.552;13.436;2022-08-19T00:52:24;10.75;;;9.82;;
18983;SDS011;9626;52.552;13.436;2022-08-19T00:54:54;10.18;;;9.20;;
18983;SDS011;9626;52.552;13.436;2022-08-19T00:57:23;10.30;;;9.30;;
18983;SDS011;9626;52.552;13.436;2022-08-19T00:59:54;10.63;;;9.63;;
18983;SDS011;9626;52.552;13.436;2022-08-19T01:02:23;10.73;;;9.70;;
18983;SDS011;9626;52.552;13.436;2022-08-19T01:04:49;10.43;;;9.52;;
18983;SDS011;9626;52.552;13.436;2022-08-19T01:07:15;10.98;;;9.90;;
18983;SDS011;9626;52.552;13.436;2022-08-19T01:09:41;10.55;;;9.52;;
18983;SDS011;9626;52.552;13.436;2022-08-19T01:12:07;10.48;;;9.57;;
18983;SDS011;9626;52.552;13.436;2022-08-19T01:14:33;11.25;;;10.18;;
18983;SDS011;9626;52.552;13.436;2022-08-19T01:17:02;11.15;;;10.05;;
18983;SDS011;9626;52.552;13.436;2022-08-19T01:19:29;10.75;;;9.85;;
18983;SDS011;9626;52.552;13.436;2022-08-19T01:22:02;10.88;;;9.52;;
18983;SDS011;9626;52.552;13.436;2022-08-19T01:24:36;11.48;;;10.38;;
18983;SDS011;9626;52.552;13.436;2022-08-19T01:27:04;11.23;;;10.13;;
18983;SDS011;9626;52.552;13.436;2022-08-19T01:29:30;11.20;;;10.10;;
18983;SDS011;9626;52.552;13.436;2022-08-19T01:31:56;12.00;;;10.60;;
18983;SDS011;9626;52.552;13.436;2022-08-19T01:34:23;11.32;;;10.23;;
18983;SDS011;9626;52.552;13.436;2022-08-19T01:36:49;11.45;;;10.35;;
18983;SDS011;9626;52.552;13.436;2022-08-19T01:39:30;11.95;;;10.40;;
18983;SDS011;9626;52.552;13.436;2022-08-19T01:41:55;12.75;;;10.52;;
18983;SDS011;9626;52.552;13.436;2022-08-19T01:44:21;12.38;;;11.15;;
18983;SDS011;9626;52.552;13.436;2022-08-19T01:47:07;11.80;;;10.70;;
18983;SDS011;9626;52.552;13.436;2022-08-19T01:49:34;11.77;;;10.57;;
18983;SDS011;9626;52.552;13.436;2022-08-19T01:52:00;11.75;;;10.40;;
18983;SDS011;9626;52.552;13.436;2022-08-19T01:54:26;12.65;;;11.35;;
18983;SDS011;9626;52.552;13.436;2022-08-19T01:57:12;11.90;;;10.70;;
18983;SDS011;9626;52.552;13.436;2022-08-19T01:59:39;15.27;;;11.60;;
18983;SDS011;9626;52.552;13.436;2022-08-19T02:02:06;16.58;;;12.02;;
18983;SDS011;9626;52.552;13.436;2022-08-19T02:04:35;12.63;;;11.30;;
18983;SDS011;9626;52.552;13.436;2022-08-19T02:07:03;12.30;;;11.02;;
18983;SDS011;9626;52.552;13.436;2022-08-19T02:09:30;12.45;;;10.90;;
18983;SDS011;9626;52.552;13.436;2022-08-19T02:11:57;12.95;;;11.05;;
18983;SDS011;9626;52.552;13.436;2022-08-19T02:14:22;13.85;;;12.00;;
18983;SDS011;9626;52.552;13.436;2022-08-19T02:16:48;11.95;;;10.75;;
18983;SDS011;9626;52.552;13.436;2022-08-19T02:19:14;12.07;;;10.88;;
18983;SDS011;9626;52.552;13.436;2022-08-19T02:21:39;14.52;;;12.00;;
18983;SDS011;9626;52.552;13.436;2022-08-19T02:24:05;12.48;;;11.38;;
18983;SDS011;9626;52.552;13.436;2022-08-19T02:26:31;13.13;;;11.95;;
18983;SDS011;9626;52.552;13.436;2022-08-19T02:28:57;14.02;;;12.73;;
18983;SDS011;9626;52.552;13.436;2022-08-19T02:31:23;14.27;;;12.88;;
18983;SDS011;9626;52.552;13.436;2022-08-19T02:33:50;15.40;;;13.82;;
18983;SDS011;9626;52.552;13.436;2022-08-19T02:36:17;22.47;;;13.60;;
18983;SDS011;9626;52.552;13.436;2022-08-19T02:39:02;14.80;;;13.38;;
18983;SDS011;9626;52.552;13.436;2022-08-19T02:41:47;12.85;;;11.60;;
18983;SDS011;9626;52.552;13.436;2022-08-19T02:44:13;13.90;;;12.10;;
18983;SDS011;9626;52.552;13.436;2022-08-19T02:46:39;12.32;;;11.13;;
18983;SDS011;9626;52.552;13.436;2022-08-19T02:49:05;12.70;;;11.13;;
18983;SDS011;9626;52.552;13.436;2022-08-19T02:51:33;12.07;;;10.98;;
18983;SDS011;9626;52.552;13.436;2022-08-19T02:54:06;11.60;;;10.50;;
18983;SDS011;9626;52.552;13.436;2022-08-19T02:56:34;12.00;;;10.65;;
18983;SDS011;9626;52.552;13.436;2022-08-19T02:59:04;11.68;;;10.00;;
18983;SDS011;9626;52.552;13.436;2022-08-19T03:01:33;11.75;;;10.63;;
18983;SDS011;9626;52.552;13.436;2022-08-19T03:04:00;9.95;;;9.05;;
18983;SDS011;9626;52.552;13.436;2022-08-19T03:06:28;14.65;;;9.93;;
18983;SDS011;9626;52.552;13.436;2022-08-19T03:08:54;10.63;;;9.68;;
18983;SDS011;9626;52.552;13.436;2022-08-19T03:11:25;12.45;;;10.30;;
18983;SDS011;9626;52.552;13.436;2022-08-19T03:13:53;10.25;;;9.32;;
18983;SDS011;9626;52.552;13.436;2022-08-19T03:16:20;11.25;;;9.88;;
18983;SDS011;9626;52.552;13.436;2022-08-19T03:18:47;10.30;;;9.30;;
18983;SDS011;9626;52.552;13.436;2022-08-19T03:21:17;10.85;;;9.85;;
18983;SDS011;9626;52.552;13.436;2022-08-19T03:23:45;10.27;;;9.43;;
18983;SDS011;9626;52.552;13.436;2022-08-19T03:26:11;11.63;;;10.07;;
18983;SDS011;9626;52.552;13.436;2022-08-19T03:28:37;11.65;;;9.35;;
18983;SDS011;9626;52.552;13.436;2022-08-19T03:31:07;10.50;;;9.50;;
18983;SDS011;9626;52.552;13.436;2022-08-19T03:33:36;10.52;;;9.32;;
18983;SDS011;9626;52.552;13.436;2022-08-19T03:36:06;11.48;;;10.30;;
18983;SDS011;9626;52.552;13.436;2022-08-19T03:38:34;10.52;;;9.52;;
18983;SDS011;9626;52.552;13.436;2022-08-19T03:41:08;10.07;;;9.07;;
18983;SDS011;9626;52.552;13.436;2022-08-19T03:43:37;10.50;;;9.40;;
18983;SDS011;9626;52.552;13.436;2022-08-19T03:46:05;9.65;;;8.65;;
18983;SDS011;9626;52.552;13.436;2022-08-19T03:48:34;9.80;;;8.90;;
18983;SDS011;9626;52.552;13.436;2022-08-19T03:51:01;9.68;;;8.88;;
18983;SDS011;9626;52.552;13.436;2022-08-19T03:53:28;9.20;;;8.30;;
18983;SDS011;9626;52.552;13.436;2022-08-19T03:55:55;9.57;;;8.60;;
18983;SDS011;9626;52.552;13.436;2022-08-19T03:58:22;10.07;;;8.95;;
18983;SDS011;9626;52.552;13.436;2022-08-19T04:00:48;11.80;;;10.63;;
18983;SDS011;9626;52.552;13.436;2022-08-19T04:03:14;10.07;;;9.05;;
18983;SDS011;9626;52.552;13.436;2022-08-19T04:05:40;9.63;;;8.82;;
18983;SDS011;9626;52.552;13.436;2022-08-19T04:08:06;10.07;;;8.93;;
18983;SDS011;9626;52.552;13.436;2022-08-19T04:10:35;9.80;;;8.93;;
18983;SDS011;9626;52.552;13.436;2022-08-19T04:13:03;9.90;;;8.77;;
18983;SDS011;9626;52.552;13.436;2022-08-19T04:15:30;11.38;;;9.20;;
18983;SDS011;9626;52.552;13.436;2022-08-19T04:18:01;9.68;;;8.65;;
18983;SDS011;9626;52.552;13.436;2022-08-19T04:20:27;9.85;;;8.85;;
18983;SDS011;9626;52.552;13.436;2022-08-19T04:22:52;10.07;;;9.10;;
18983;SDS011;9626;52.552;13.436;2022-08-19T04:25:18;11.90;;;9.00;;
18983;SDS011;9626;52.552;13.436;2022-08-19T04:27:43;9.88;;;8.93;;
18983;SDS011;9626;52.552;13.436;2022-08-19T04:30:12;9.90;;;8.93;;
18983;SDS011;9626;52.552;13.436;2022-08-19T04:32:38;10.52;;;9.43;;
18983;SDS011;9626;52.552;13.436;2022-08-19T04:35:23;13.00;;;10.27;;
18983;SDS011;9626;52.552;13.436;2022-08-19T04:38:03;11.32;;;10.07;;
18983;SDS011;9626;52.552;13.436;2022-08-19T04:40:30;11.15;;;9.93;;
18983;SDS011;9626;52.552;13.436;2022-08-19T04:43:14;11.40;;;10.07;;
18983;SDS011;9626;52.552;13.436;2022-08-19T04:45:39;10.50;;;9.50;;
18983;SDS011;9626;52.552;13.436;2022-08-19T04:48:12;11.15;;;9.73;;
18983;SDS011;9626;52.552;13.436;2022-08-19T04:50:42;10.88;;;9.80;;
18983;SDS011;9626;52.552;13.436;2022-08-19T04:53:08;10.20;;;9.30;;
18983;SDS011;9626;52.552;13.436;2022-08-19T04:55:34;11.15;;;9.65;;
18983;SDS011;9626;52.552;13.436;2022-08-19T04:58:00;11.90;;;10.80;;
18983;SDS011;9626;52.552;13.436;2022-08-19T05:00:27;11.35;;;10.23;;
18983;SDS011;9626;52.552;13.436;2022-08-19T05:02:53;10.95;;;9.95;;
18983;SDS011;9626;52.552;13.436;2022-08-19T05:05:18;11.90;;;10.55;;
18983;SDS011;9626;52.552;13.436;2022-08-19T05:07:44;12.18;;;10.10;;
18983;SDS011;9626;52.552;13.436;2022-08-19T05:10:29;11.32;;;9.80;;
18983;SDS011;9626;52.552;13.436;2022-08-19T05:12:55;11.77;;;10.32;;
18983;SDS011;9626;52.552;13.436;2022-08-19T05:15:22;11.30;;;10.27;;
18983;SDS011;9626;52.552;13.436;2022-08-19T05:17:48;11.63;;;10.00;;
18983;SDS011;9626;52.552;13.436;2022-08-19T05:20:32;11.65;;;10.10;;
18983;SDS011;9626;52.552;13.436;2022-08-19T05:23:16;10.75;;;9.82;;
18983;SDS011;9626;52.552;13.436;2022-08-19T05:25:51;11.38;;;9.93;;
18983;SDS011;9626;52.552;13.436;2022-08-19T05:28:18;11.25;;;10.15;;
18983;SDS011;9626;52.552;13.436;2022-08-19T05:30:45;11.63;;;10.45;;
18983;SDS011;9626;52.552;13.436;2022-08-19T05:33:11;11.07;;;10.05;;
18983;SDS011;9626;52.552;13.436;2022-08-19T05:35:40;11.07;;;10.07;;
18983;SDS011;9626;52.552;13.436;2022-08-19T05:38:06;11.23;;;9.88;;
18983;SDS011;9626;52.552;13.436;2022-08-19T05:40:39;12.60;;;10.65;;
18983;SDS011;9626;52.552;13.436;2022-08-19T05:43:05;14.23;;;9.85;;
18983;SDS011;9626;52.552;13.436;2022-08-19T05:45:32;10.50;;;9.60;;
18983;SDS011;9626;52.552;13.436;2022-08-19T05:48:02;11.02;;;9.98;;
18983;SDS011;9626;52.552;13.436;2022-08-19T05:50:46;10.60;;;9.60;;
18983;SDS011;9626;52.552;13.436;2022-08-19T05:53:15;10.38;;;9.40;;
18983;SDS011;9626;52.552;13.436;2022-08-19T05:55:42;10.88;;;9.82;;
18983;SDS011;9626;52.552;13.436;2022-08-19T05:58:07;11.38;;;10.20;;
18983;SDS011;9626;52.552;13.436;2022-08-19T06:00:33;10.98;;;9.88;;
18983;SDS011;9626;52.552;13.436;2022-08-19T06:02:59;10.73;;;9.70;;
18983;SDS011;9626;52.552;13.436;2022-08-19T06:05:31;11.90;;;10.23;;
18983;SDS011;9626;52.552;13.436;2022-08-19T06:07:57;12.27;;;11.13;;
18983;SDS011;9626;52.552;13.436;2022-08-19T06:10:23;11.35;;;10.15;;
18983;SDS011;9626;52.552;13.436;2022-08-19T06:12:50;12.90;;;10.57;;
18983;SDS011;9626;52.552;13.436;2022-08-19T06:15:15;11.60;;;10.50;;
18983;SDS011;9626;52.552;13.436;2022-08-19T06:17:41;12.20;;;10.98;;
18983;SDS011;9626;52.552;13.436;2022-08-19T06:20:09;11.95;;;10.88;;
18983;SDS011;9626;52.552;13.436;2022-08-19T06:22:41;13.77;;;11.48;;
18983;SDS011;9626;52.552;13.436;2022-08-19T06:25:26;12.20;;;11.00;;
18983;SDS011;9626;52.552;13.436;2022-08-19T06:28:04;15.27;;;10.77;;
18983;SDS011;9626;52.552;13.436;2022-08-19T06:30:29;11.88;;;10.68;;
18983;SDS011;9626;52.552;13.436;2022-08-19T06:32:55;12.35;;;11.15;;
18983;SDS011;9626;52.552;13.436;2022-08-19T06:35:20;13.52;;;12.23;;
18983;SDS011;9626;52.552;13.436;2022-08-19T06:37:46;12.10;;;11.00;;
18983;SDS011;9626;52.552;13.436;2022-08-19T06:40:12;12.43;;;11.05;;
18983;SDS011;9626;52.552;13.436;2022-08-19T06:42:56;12.70;;;11.60;;
18983;SDS011;9626;52.552;13.436;2022-08-19T06:45:23;13.35;;;12.02;;
18983;SDS011;9626;52.552;13.436;2022-08-19T06:47:50;13.45;;;12.02;;
18983;SDS011;9626;52.552;13.436;2022-08-19T06:50:21;12.40;;;11.27;;
18983;SDS011;9626;52.552;13.436;2022-08-19T06:52:47;12.65;;;11.40;;
18983;SDS011;9626;52.552;13.436;2022-08-19T06:55:14;12.77;;;11.55;;
18983;SDS011;9626;52.552;13.436;2022-08-19T06:57:40;12.45;;;11.35;;
18983;SDS011;9626;52.552;13.436;2022-08-19T07:00:07;13.60;;;12.32;;
18983;SDS011;9626;52.552;13.436;2022-08-19T07:02:39;14.05;;;12.20;;
18983;SDS011;9626;52.552;13.436;2022-08-19T07:05:06;12.98;;;11.75;;
18983;SDS011;9626;52.552;13.436;2022-08-19T07:07:32;15.23;;;12.05;;
18983;SDS011;9626;52.552;13.436;2022-08-19T07:09:59;14.60;;;12.80;;
18983;SDS011;9626;52.552;13.436;2022-08-19T07:12:24;13.15;;;11.73;;
18983;SDS011;9626;52.552;13.436;2022-08-19T07:14:51;14.93;;;12.85;;
18983;SDS011;9626;52.552;13.436;2022-08-19T07:20:30;14.75;;;13.05;;
18983;SDS011;9626;52.552;13.436;2022-08-19T07:22:56;33.55;;;14.65;;
18983;SDS011;9626;52.552;13.436;2022-08-19T07:25:21;19.42;;;13.25;;
18983;SDS011;9626;52.552;13.436;2022-08-19T07:27:50;13.98;;;12.68;;
18983;SDS011;9626;52.552;13.436;2022-08-19T07:30:15;13.65;;;11.98;;
18983;SDS011;9626;52.552;13.436;2022-08-19T07:33:00;14.80;;;11.98;;
18983;SDS011;9626;52.552;13.436;2022-08-19T07:35:25;13.52;;;12.15;;
18983;SDS011;9626;52.552;13.436;2022-08-19T07:37:51;15.73;;;13.05;;
18983;SDS011;9626;52.552;13.436;2022-08-19T07:40:17;14.68;;;13.10;;
18983;SDS011;9626;52.552;13.436;2022-08-19T07:42:43;13.73;;;12.45;;
18983;SDS011;9626;52.552;13.436;2022-08-19T07:45:09;13.10;;;11.90;;
18983;SDS011;9626;52.552;13.436;2022-08-19T07:47:35;13.57;;;12.30;;
18983;SDS011;9626;52.552;13.436;2022-08-19T07:50:01;15.13;;;12.85;;
18983;SDS011;9626;52.552;13.436;2022-08-19T07:55:23;14.18;;;12.73;;
18983;SDS011;9626;52.552;13.436;2022-08-19T07:57:50;14.77;;;13.10;;
18983;SDS011;9626;52.552;13.436;2022-08-19T08:00:17;14.40;;;13.02;;
18983;SDS011;9626;52.552;13.436;2022-08-19T08:02:43;15.05;;;13.50;;
18983;SDS011;9626;52.552;13.436;2022-08-19T08:05:09;16.83;;;13.52;;
18983;SDS011;9626;52.552;13.436;2022-08-19T08:07:54;14.50;;;13.10;;
18983;SDS011;9626;52.552;13.436;2022-08-19T08:10:38;15.13;;;13.57;;
18983;SDS011;9626;52.552;13.436;2022-08-19T08:13:04;17.23;;;14.65;;
18983;SDS011;9626;52.552;13.436;2022-08-19T08:15:30;19.85;;;14.98;;
18983;SDS011;9626;52.552;13.436;2022-08-19T08:17:56;65.63;;;24.27;;
18983;SDS011;9626;52.552;13.436;2022-08-19T08:20:23;23.25;;;16.33;;
18983;SDS011;9626;52.552;13.436;2022-08-19T08:22:49;34.08;;;18.58;;
18983;SDS011;9626;52.552;13.436;2022-08-19T08:25:34;50.03;;;21.85;;
18983;SDS011;9626;52.552;13.436;2022-08-19T08:28:02;28.55;;;16.75;;
18983;SDS011;9626;52.552;13.436;2022-08-19T08:30:29;17.25;;;15.45;;
18983;SDS011;9626;52.552;13.436;2022-08-19T08:32:57;16.50;;;14.85;;
18983;SDS011;9626;52.552;13.436;2022-08-19T08:35:23;16.50;;;14.82;;
18983;SDS011;9626;52.552;13.436;2022-08-19T08:37:50;16.67;;;14.93;;
18983;SDS011;9626;52.552;13.436;2022-08-19T08:43:09;16.13;;;14.43;;
18983;SDS011;9626;52.552;13.436;2022-08-19T08:45:42;16.40;;;14.82;;
18983;SDS011;9626;52.552;13.436;2022-08-19T08:48:19;17.02;;;15.30;;
18983;SDS011;9626;52.552;13.436;2022-08-19T08:50:48;16.65;;;14.98;;
18983;SDS011;9626;52.552;13.436;2022-08-19T08:53:17;16.20;;;14.75;;
18983;SDS011;9626;52.552;13.436;2022-08-19T08:55:44;16.77;;;15.25;;
18983;SDS011;9626;52.552;13.436;2022-08-19T08:58:24;17.13;;;15.43;;
18983;SDS011;9626;52.552;13.436;2022-08-19T09:00:55;16.65;;;14.95;;
18983;SDS011;9626;52.552;13.436;2022-08-19T09:03:24;16.45;;;14.93;;
18983;SDS011;9626;52.552;13.436;2022-08-19T09:11:32;15.63;;;14.32;;
18983;SDS011;9626;52.552;13.436;2022-08-19T09:14:07;16.52;;;15.02;;
18983;SDS011;9626;52.552;13.436;2022-08-19T09:16:41;16.77;;;15.10;;
18983;SDS011;9626;52.552;13.436;2022-08-19T09:19:07;16.38;;;14.75;;
18983;SDS011;9626;52.552;13.436;2022-08-19T09:21:34;16.63;;;14.93;;
18983;SDS011;9626;52.552;13.436;2022-08-19T09:24:00;15.85;;;14.38;;
18983;SDS011;9626;52.552;13.436;2022-08-19T09:26:27;14.93;;;13.38;;
18983;SDS011;9626;52.552;13.436;2022-08-19T09:28:53;17.83;;;15.23;;
18983;SDS011;9626;52.552;13.436;2022-08-19T09:31:23;16.40;;;14.68;;
18983;SDS011;9626;52.552;13.436;2022-08-19T09:33:51;16.77;;;13.63;;
18983;SDS011;9626;52.552;13.436;2022-08-19T09:36:18;14.82;;;13.32;;
18983;SDS011;9626;52.552;13.436;2022-08-19T09:38:47;15.82;;;14.27;;
18983;SDS011;9626;52.552;13.436;2022-08-19T09:41:16;14.95;;;13.60;;
18983;SDS011;9626;52.552;13.436;2022-08-19T09:43:44;14.60;;;13.20;;
18983;SDS011;9626;52.552;13.436;2022-08-19T09:46:12;14.70;;;13.32;;
18983;SDS011;9626;52.552;13.436;2022-08-19T09:48:38;14.40;;;13.00;;
18983;SDS011;9626;52.552;13.436;2022-08-19T09:51:10;15.45;;;13.95;;
18983;SDS011;9626;52.552;13.436;2022-08-19T09:53:40;14.02;;;12.60;;
18983;SDS011;9626;52.552;13.436;2022-08-19T09:56:07;16.25;;;14.45;;
18983;SDS011;9626;52.552;13.436;2022-08-19T09:58:33;19.75;;;14.27;;
18983;SDS011;9626;52.552;13.436;2022-08-19T10:01:01;13.70;;;12.43;;
18983;SDS011;9626;52.552;13.436;2022-08-19T10:03:28;15.43;;;12.98;;
18983;SDS011;9626;52.552;13.436;2022-08-19T10:05:56;14.10;;;12.70;;
18983;SDS011;9626;52.552;13.436;2022-08-19T10:08:27;14.60;;;13.10;;
18983;SDS011;9626;52.552;13.436;2022-08-19T10:10:55;15.02;;;12.40;;
18983;SDS011;9626;52.552;13.436;2022-08-19T10:13:23;16.80;;;12.10;;
18983;SDS011;9626;52.552;13.436;2022-08-19T10:15:51;14.38;;;12.95;;
18983;SDS011;9626;52.552;13.436;2022-08-19T10:18:19;16.27;;;13.27;;
18983;SDS011;9626;52.552;13.436;2022-08-19T10:20:46;14.23;;;12.82;;
18983;SDS011;9626;52.552;13.436;2022-08-19T10:23:13;14.55;;;12.85;;
18983;SDS011;9626;52.552;13.436;2022-08-19T10:25:40;14.13;;;12.73;;
18983;SDS011;9626;52.552;13.436;2022-08-19T10:28:07;14.05;;;12.65;;
18983;SDS011;9626;52.552;13.436;2022-08-19T10:30:37;13.32;;;12.10;;
18983;SDS011;9626;52.552;13.436;2022-08-19T10:33:04;13.20;;;11.93;;
18983;SDS011;9626;52.552;13.436;2022-08-19T10:35:30;12.55;;;11.35;;
18983;SDS011;9626;52.552;13.436;2022-08-19T10:37:56;13.50;;;12.15;;
18983;SDS011;9626;52.552;13.436;2022-08-19T10:40:27;13.55;;;12.32;;
18983;SDS011;9626;52.552;13.436;2022-08-19T10:42:54;14.25;;;12.85;;
18983;SDS011;9626;52.552;13.436;2022-08-19T10:45:21;13.82;;;12.52;;
18983;SDS011;9626;52.552;13.436;2022-08-19T10:47:52;13.98;;;12.65;;
18983;SDS011;9626;52.552;13.436;2022-08-19T10:50:18;13.95;;;12.43;;
18983;SDS011;9626;52.552;13.436;2022-08-19T10:53:04;13.20;;;11.90;;
18983;SDS011;9626;52.552;13.436;2022-08-19T10:58:51;13.27;;;11.98;;
18983;SDS011;9626;52.552;13.436;2022-08-19T11:01:17;14.02;;;11.40;;
18983;SDS011;9626;52.552;13.436;2022-08-19T11:03:43;12.82;;;11.63;;
18983;SDS011;9626;52.552;13.436;2022-08-19T11:06:10;13.95;;;11.20;;
18983;SDS011;9626;52.552;13.436;2022-08-19T11:08:37;12.65;;;11.43;;
18983;SDS011;9626;52.552;13.436;2022-08-19T11:11:04;13.65;;;10.93;;
18983;SDS011;9626;52.552;13.436;2022-08-19T11:13:32;13.10;;;11.90;;
18983;SDS011;9626;52.552;13.436;2022-08-19T11:16:08;12.45;;;11.35;;
18983;SDS011;9626;52.552;13.436;2022-08-19T11:18:40;13.80;;;11.73;;
18983;SDS011;9626;52.552;13.436;2022-08-19T11:21:10;12.77;;;11.50;;
18983;SDS011;9626;52.552;13.436;2022-08-19T11:23:38;13.27;;;11.60;;
18983;SDS011;9626;52.552;13.436;2022-08-19T11:26:03;13.32;;;12.05;;
18983;SDS011;9626;52.552;13.436;2022-08-19T11:28:29;12.65;;;11.45;;
18983;SDS011;9626;52.552;13.436;2022-08-19T11:30:55;13.50;;;12.07;;
18983;SDS011;9626;52.552;13.436;2022-08-19T11:33:20;12.55;;;11.40;;
18983;SDS011;9626;52.552;13.436;2022-08-19T11:35:46;12.77;;;11.30;;
18983;SDS011;9626;52.552;13.436;2022-08-19T11:38:11;12.80;;;11.50;;
18983;SDS011;9626;52.552;13.436;2022-08-19T11:40:38;19.58;;;11.93;;
18983;SDS011;9626;52.552;13.436;2022-08-19T11:43:04;12.18;;;11.18;;
18983;SDS011;9626;52.552;13.436;2022-08-19T11:45:29;15.25;;;11.88;;
18983;SDS011;9626;52.552;13.436;2022-08-19T11:47:55;12.70;;;11.60;;
18983;SDS011;9626;52.552;13.436;2022-08-19T11:50:21;13.93;;;11.18;;
18983;SDS011;9626;52.552;13.436;2022-08-19T11:52:48;12.55;;;11.27;;
18983;SDS011;9626;52.552;13.436;2022-08-19T11:55:14;11.90;;;10.80;;
18983;SDS011;9626;52.552;13.436;2022-08-19T11:57:40;11.52;;;10.52;;
18983;SDS011;9626;52.552;13.436;2022-08-19T12:00:07;11.85;;;10.55;;
18983;SDS011;9626;52.552;13.436;2022-08-19T12:02:34;11.80;;;10.60;;
18983;SDS011;9626;52.552;13.436;2022-08-19T12:05:00;10.88;;;9.80;;
18983;SDS011;9626;52.552;13.436;2022-08-19T12:07:28;11.35;;;10.00;;
18983;SDS011;9626;52.552;13.436;2022-08-19T12:09:54;10.20;;;9.30;;
18983;SDS011;9626;52.552;13.436;2022-08-19T12:12:19;11.10;;;10.00;;
18983;SDS011;9626;52.552;13.436;2022-08-19T12:14:46;10.98;;;9.85;;
18983;SDS011;9626;52.552;13.436;2022-08-19T12:17:12;10.20;;;9.30;;
18983;SDS011;9626;52.552;13.436;2022-08-19T12:19:38;10.60;;;9.60;;
18983;SDS011;9626;52.552;13.436;2022-08-19T12:22:05;10.48;;;9.40;;
18983;SDS011;9626;52.552;13.436;2022-08-19T12:24:32;9.85;;;8.95;;
18983;SDS011;9626;52.552;13.436;2022-08-19T12:26:59;9.45;;;8.55;;
18983;SDS011;9626;52.552;13.436;2022-08-19T12:29:27;9.95;;;9.05;;
18983;SDS011;9626;52.552;13.436;2022-08-19T12:31:54;9.48;;;8.57;;
18983;SDS011;9626;52.552;13.436;2022-08-19T12:34:25;8.65;;;7.85;;
18983;SDS011;9626;52.552;13.436;2022-08-19T12:36:51;12.07;;;8.35;;
18983;SDS011;9626;52.552;13.436;2022-08-19T12:39:17;9.05;;;8.25;;
18983;SDS011;9626;52.552;13.436;2022-08-19T12:41:42;8.32;;;7.28;;
18983;SDS011;9626;52.552;13.436;2022-08-19T12:44:08;9.18;;;7.63;;
18983;SDS011;9626;52.552;13.436;2022-08-19T12:46:33;8.35;;;7.55;;
18983;SDS011;9626;52.552;13.436;2022-08-19T12:48:59;10.25;;;7.65;;
18983;SDS011;9626;52.552;13.436;2022-08-19T12:51:24;8.48;;;7.63;;
18983;SDS011;9626;52.552;13.436;2022-08-19T12:53:51;10.90;;;8.82;;
18983;SDS011;9626;52.552;13.436;2022-08-19T12:56:17;9.23;;;8.05;;
18983;SDS011;9626;52.552;13.436;2022-08-19T12:58:44;9.60;;;8.70;;
18983;SDS011;9626;52.552;13.436;2022-08-19T13:01:13;10.40;;;8.52;;
18983;SDS011;9626;52.552;13.436;2022-08-19T13:03:41;10.70;;;8.82;;
18983;SDS011;9626;52.552;13.436;2022-08-19T13:06:10;8.95;;;8.15;;
18983;SDS011;9626;52.552;13.436;2022-08-19T13:08:36;10.13;;;9.23;;
18983;SDS011;9626;52.552;13.436;2022-08-19T13:13:40;10.13;;;8.95;;
18983;SDS011;9626;52.552;13.436;2022-08-19T13:16:07;9.30;;;8.35;;
18983;SDS011;9626;52.552;13.436;2022-08-19T13:18:34;9.52;;;8.60;;
18983;SDS011;9626;52.552;13.436;2022-08-19T13:21:07;9.25;;;8.30;;
18983;SDS011;9626;52.552;13.436;2022-08-19T13:23:34;9.80;;;8.90;;
18983;SDS011;9626;52.552;13.436;2022-08-19T13:26:04;9.70;;;8.75;;
18983;SDS011;9626;52.552;13.436;2022-08-19T13:28:31;10.00;;;8.98;;
18983;SDS011;9626;52.552;13.436;2022-08-19T13:31:19;10.50;;;9.45;;
18983;SDS011;9626;52.552;13.436;2022-08-19T13:34:06;9.88;;;9.05;;
18983;SDS011;9626;52.552;13.436;2022-08-19T13:36:32;10.00;;;9.07;;
18983;SDS011;9626;52.552;13.436;2022-08-19T13:38:58;9.63;;;8.48;;
18983;SDS011;9626;52.552;13.436;2022-08-19T13:41:24;9.77;;;8.98;;
18983;SDS011;9626;52.552;13.436;2022-08-19T13:43:50;10.07;;;9.05;;
18983;SDS011;9626;52.552;13.436;2022-08-19T13:46:15;10.48;;;9.48;;
18983;SDS011;9626;52.552;13.436;2022-08-19T13:48:41;10.40;;;9.50;;
18983;SDS011;9626;52.552;13.436;2022-08-19T13:51:07;9.98;;;8.98;;
18983;SDS011;9626;52.552;13.436;2022-08-19T13:53:38;10.43;;;9.43;;
18983;SDS011;9626;52.552;13.436;2022-08-19T13:56:15;9.57;;;8.77;;
18983;SDS011;9626;52.552;13.436;2022-08-19T13:58:57;10.90;;;8.80;;
18983;SDS011;9626;52.552;13.436;2022-08-19T14:01:23;10.05;;;9.15;;
18983;SDS011;9626;52.552;13.436;2022-08-19T14:03:49;10.35;;;9.27;;
18983;SDS011;9626;52.552;13.436;2022-08-19T14:06:14;10.52;;;9.43;;
18983;SDS011;9626;52.552;13.436;2022-08-19T14:08:42;9.88;;;8.98;;
18983;SDS011;9626;52.552;13.436;2022-08-19T14:11:08;10.32;;;9.32;;
18983;SDS011;9626;52.552;13.436;2022-08-19T14:13:34;9.95;;;9.05;;
18983;SDS011;9626;52.552;13.436;2022-08-19T14:16:00;11.05;;;9.55;;
18983;SDS011;9626;52.552;13.436;2022-08-19T14:18:26;9.65;;;8.65;;
18983;SDS011;9626;52.552;13.436;2022-08-19T14:20:52;9.75;;;8.77;;
18983;SDS011;9626;52.552;13.436;2022-08-19T14:23:17;9.75;;;8.85;;
18983;SDS011;9626;52.552;13.436;2022-08-19T14:25:43;10.68;;;8.75;;
18983;SDS011;9626;52.552;13.436;2022-08-19T14:28:09;9.77;;;8.82;;
18983;SDS011;9626;52.552;13.436;2022-08-19T14:30:35;9.48;;;8.60;;
18983;SDS011;9626;52.552;13.436;2022-08-19T14:33:03;9.23;;;8.40;;
18983;SDS011;9626;52.552;13.436;2022-08-19T14:35:30;9.95;;;8.45;;
18983;SDS011;9626;52.552;13.436;2022-08-19T14:37:59;9.38;;;8.57;;
18983;SDS011;9626;52.552;13.436;2022-08-19T14:40:27;11.15;;;8.40;;
18983;SDS011;9626;52.552;13.436;2022-08-19T14:42:56;10.60;;;9.70;;
18983;SDS011;9626;52.552;13.436;2022-08-19T14:45:27;9.80;;;8.80;;
18983;SDS011;9626;52.552;13.436;2022-08-19T14:47:54;9.95;;;8.70;;
18983;SDS011;9626;52.552;13.436;2022-08-19T14:50:20;8.98;;;8.18;;
18983;SDS011;9626;52.552;13.436;2022-08-19T14:55:34;9.55;;;8.32;;
18983;SDS011;9626;52.552;13.436;2022-08-19T14:58:00;9.32;;;8.50;;
18983;SDS011;9626;52.552;13.436;2022-08-19T15:00:26;11.68;;;9.02;;